Time;durP1;ratioP1;P1;durP2;ratioP2;P2;SDS_P1;SDS_P2;PMS_P1;PMS_P2;Temp;Humidity;BMP_temperature;BMP_pressure;BME280_temperature;BME280_humidity;BME280_pressure;Samples;Min_cycle;Max_cycle;Signal;HPM_P1;HPM_P2
2024/01/11 00:00:31;;;;;;;1.15;0.75;;;2.90;85.20;;;;;;4987064;28;20423;-88
2024/01/11 00:06:52;;;;;;;0.50;0.50;;;2.90;85.00;;;;;;4808035;29;20636;-88
2024/01/11 00:20:16;;;;;;;;;;;;;;;;;;;;;
2024/01/11 00:31:44;;;;;;;;;;;;;;;;;;;;;
2024/01/11 00:38:03;;;;;;;0.80;0.80;;;2.90;84.20;;;;;;4805930;29;20154;-88
2024/01/11 00:41:06;;;;;;;0.90;0.82;;;2.90;84.80;;;;;;4844529;29;20098;-87
2024/01/11 00:46:59;;;;;;;1.88;0.70;;;2.90;84.50;;;;;;4904063;28;20042;-87
2024/01/11 00:50:30;;;;;;;;;;;;;;;;;;;;;
2024/01/11 00:53:24;;;;;;;;;;;;;;;;;;;;;
2024/01/11 00:56:38;;;;;;;1.05;0.60;;;2.90;83.80;;;;;;4915391;29;20086;-86
2024/01/11 00:59:53;;;;;;;;;;;;;;;;;;;;;
2024/01/11 01:02:55;;;;;;;1.50;0.52;;;3.00;83.80;;;;;;4930420;29;20378;-88
2024/01/11 01:06:07;;;;;;;;;;;;;;;;;;;;;
2024/01/11 01:09:18;;;;;;;;;;;;;;;;;;;;;
2024/01/11 01:15:58;;;;;;;0.40;0.30;;;2.90;83.10;;;;;;4921810;29;20150;-87
2024/01/11 01:19:02;;;;;;;0.22;0.22;;;3.00;83.40;;;;;;4923265;29;20133;-88
2024/01/11 01:26:00;;;;;;;;;;;;;;;;;;;;;
2024/01/11 01:29:05;;;;;;;0.35;0.32;;;3.00;82.60;;;;;;4942066;28;20402;-90
2024/01/11 01:32:37;;;;;;;;;;;;;;;;;;;;;
2024/01/11 01:42:16;;;;;;;0.10;0.10;;;3.00;80.90;;;;;;4912641;29;20083;-86
2024/01/11 01:45:20;;;;;;;;;;;;;;;;;;;;;
2024/01/11 01:51:48;;;;;;;0.15;0.15;;;2.90;78.00;;;;;;4952911;28;20055;-86
2024/01/11 01:59:38;;;;;;;0.95;0.30;;;2.90;78.90;;;;;;4812155;29;20437;-86
2024/01/11 02:02:47;;;;;;;0.45;0.20;;;2.70;81.40;;;;;;4878253;29;20411;-85
2024/01/11 02:05:48;;;;;;;;;;;;;;;;;;;;;
2024/01/11 02:08:59;;;;;;;0.60;0.60;;;2.30;82.00;;;;;;4818277;29;20082;-87
2024/01/11 02:12:12;;;;;;;;;;;;;;;;;;;;;
2024/01/11 02:18:08;;;;;;;1.15;0.40;;;2.00;80.50;;;;;;4792631;29;20056;-88
2024/01/11 02:20:52;;;;;;;;;;;;;;;;;;;;;
2024/01/11 02:23:46;;;;;;;;;;;;;;;;;;;;;
2024/01/11 02:48:00;;;;;;;0.22;0.10;;;1.80;78.80;;;;;;5116796;27;20431;-87
2024/01/11 02:50:38;;;;;;;0.30;0.10;;;1.60;73.20;;;;;;5082242;28;20519;-86
2024/01/11 02:53:34;;;;;;;0.38;0.30;;;1.40;73.40;;;;;;5029168;28;20137;-87
2024/01/11 02:56:25;;;;;;;;;;;;;;;;;;;;;
2024/01/11 02:59:28;;;;;;;;;;;;;;;;;;;;;
2024/01/11 03:02:59;;;;;;;;;;;;;;;;;;;;;
2024/01/11 03:06:17;;;;;;;;;;;;;;;;;;;;;
2024/01/11 03:09:29;;;;;;;0.25;0.20;;;1.00;71.40;;;;;;4983245;28;20045;-87
2024/01/11 03:12:53;;;;;;;;;;;;;;;;;;;;;
2024/01/11 03:19:21;;;;;;;0.28;0.28;;;0.80;71.00;;;;;;4991064;28;20568;-86
2024/01/11 03:22:06;;;;;;;;;;;;;;;;;;;;;
2024/01/11 03:25:08;;;;;;;0.32;0.30;;;0.70;68.10;;;;;;5037338;28;20508;-88
2024/01/11 03:27:37;;;;;;;0.15;0.15;;;0.70;67.60;;;;;;5012644;28;20049;-84
2024/01/11 03:30:08;;;;;;;0.50;0.20;;;0.60;66.10;;;;;;5076079;28;20048;-86
2024/01/11 03:32:39;;;;;;;0.10;0.10;;;0.50;66.20;;;;;;5092595;28;20483;-86
2024/01/11 03:35:09;;;;;;;0.30;0.30;;;0.30;66.40;;;;;;5072680;28;20093;-84
2024/01/11 03:37:52;;;;;;;3.45;0.50;;;0.20;67.10;;;;;;5102080;28;20133;-86
2024/01/11 03:40:20;;;;;;;0.17;0.10;;;0.20;66.90;;;;;;5091693;28;20097;-85
2024/01/11 03:42:55;;;;;;;0.20;0.10;;;0.00;67.30;;;;;;5086805;28;20047;-85
2024/01/11 03:45:23;;;;;;;0.47;0.15;;;-0.10;66.40;;;;;;5086959;28;20489;-85
2024/01/11 03:48:19;;;;;;;0.50;0.40;;;-0.10;67.70;;;;;;5079598;28;20178;-84
2024/01/11 03:51:46;;;;;;;;;;;;;;;;;;;;;
2024/01/11 03:58:44;;;;;;;0.10;0.10;;;-0.20;67.80;;;;;;4899214;29;20075;-83
2024/01/11 04:01:14;;;;;;;0.20;0.10;;;-0.30;66.60;;;;;;4908054;29;20555;-84
2024/01/11 04:03:43;;;;;;;0.45;0.20;;;-0.30;66.90;;;;;;4949034;28;20077;-83
2024/01/11 04:06:20;;;;;;;0.38;0.05;;;-0.30;67.40;;;;;;4990880;28;20036;-82
2024/01/11 04:08:50;;;;;;;0.32;0.30;;;-0.40;66.50;;;;;;5084452;28;20103;-83
2024/01/11 04:11:18;;;;;;;0.63;0.60;;;-0.50;66.90;;;;;;5073409;28;20415;-83
2024/01/11 04:13:47;;;;;;;0.20;0.20;;;-0.50;67.70;;;;;;5074858;28;20429;-83
2024/01/11 04:16:17;;;;;;;0.32;0.32;;;-0.60;66.70;;;;;;5083256;28;20077;-83
2024/01/11 04:18:49;;;;;;;0.57;0.28;;;-0.70;67.20;;;;;;5082637;28;20149;-85
2024/01/11 04:21:45;;;;;;;;;;;;;;;;;;;;;
2024/01/11 04:25:20;;;;;;;;;;;;;;;;;;;;;
2024/01/11 04:28:19;;;;;;;0.30;0.30;;;-0.90;67.00;;;;;;5074031;28;20051;-86
2024/01/11 04:31:40;;;;;;;;;;;;;;;;;;;;;
2024/01/11 04:34:22;;;;;;;0.60;0.40;;;-0.80;65.50;;;;;;5019668;28;20053;-83
2024/01/11 04:38:04;;;;;;;;;;;;;;;;;;;;;
2024/01/11 04:41:39;;;;;;;1.50;0.60;;;-0.80;65.50;;;;;;4886748;29;20175;-91
2024/01/11 04:45:01;;;;;;;;;;;;;;;;;;;;;
2024/01/11 05:02:15;;;;;;;0.75;0.57;;;-1.10;64.20;;;;;;4912747;29;20525;-82
2024/01/11 05:05:30;;;;;;;2.03;0.60;;;-1.20;63.10;;;;;;4908960;29;20131;-87
2024/01/11 05:08:34;;;;;;;;;;;;;;;;;;;;;
2024/01/11 05:23:01;;;;;;;;;;;;;;;;;;;;;
2024/01/11 05:26:27;;;;;;;;;;;;;;;;;;;;;
2024/01/11 05:29:31;;;;;;;1.90;0.95;;;-1.90;64.80;;;;;;4943001;28;20599;-84
2024/01/11 05:32:29;;;;;;;;;;;;;;;;;;;;;
2024/01/11 05:35:59;;;;;;;;;;;;;;;;;;;;;
2024/01/11 05:39:21;;;;;;;2.95;1.00;;;-2.00;66.60;;;;;;4871348;29;20083;-83
2024/01/11 05:42:38;;;;;;;;;;;;;;;;;;;;;
2024/01/11 05:45:52;;;;;;;1.42;0.80;;;-1.90;68.90;;;;;;4954312;28;20665;-84
2024/01/11 05:49:10;;;;;;;;;;;;;;;;;;;;;
2024/01/11 05:52:42;;;;;;;;;;;;;;;;;;;;;
2024/01/11 05:56:26;;;;;;;1.83;0.82;;;-2.20;72.50;;;;;;4984585;28;20082;-83
2024/01/11 05:59:49;;;;;;;;;;;;;;;;;;;;;
2024/01/11 06:02:50;;;;;;;9.55;1.30;;;-2.20;72.30;;;;;;4990265;28;20049;-84
2024/01/11 06:05:42;;;;;;;5.05;1.02;;;-2.30;72.00;;;;;;4907989;29;20250;-82
2024/01/11 06:08:14;;;;;;;0.70;0.70;;;-2.40;72.10;;;;;;4956871;28;20158;-83
2024/01/11 06:14:27;;;;;;;1.55;0.88;;;-2.60;71.20;;;;;;5029919;28;20095;-84
2024/01/11 06:18:02;;;;;;;;;;;;;;;;;;;;;
2024/01/11 06:21:50;;;;;;;;;;;;;;;;;;;;;
2024/01/11 06:29:55;;;;;;;1.48;1.38;;;-2.50;72.60;;;;;;4831688;29;20506;-84
2024/01/11 06:33:17;;;;;;;1.85;1.13;;;-2.70;72.70;;;;;;4893355;28;20149;-83
2024/01/11 06:44:28;;;;;;;2.35;0.80;;;-2.70;70.80;;;;;;4770762;29;20055;-87
2024/01/11 06:47:07;;;;;;;1.30;1.00;;;-3.00;68.40;;;;;;4824607;29;20070;-88
2024/01/11 06:49:44;;;;;;;1.25;0.60;;;-3.10;69.00;;;;;;4873329;29;20607;-86
2024/01/11 06:52:27;;;;;;;2.13;1.23;;;-3.10;68.20;;;;;;5025661;28;20571;-87
2024/01/11 06:55:10;;;;;;;3.95;1.25;;;-3.10;67.80;;;;;;5079609;28;20106;-87
2024/01/11 06:57:57;;;;;;;6.07;1.10;;;-3.10;67.00;;;;;;5077219;28;20052;-87
2024/01/11 07:01:07;;;;;;;4.32;0.60;;;-3.10;67.40;;;;;;5084997;28;20067;-85
2024/01/11 07:04:02;;;;;;;5.53;1.48;;;-3.10;67.30;;;;;;5084309;28;20040;-87
2024/01/11 07:20:15;;;;;;;;;;;;;;;;;;;;;
2024/01/11 07:32:03;;;;;;;6.70;1.88;;;-3.40;69.50;;;;;;5118050;27;20463;-87
2024/01/11 07:35:57;;;;;;;3.67;1.77;;;-3.20;71.10;;;;;;5048967;28;20150;-81
2024/01/11 07:39:55;;;;;;;;;;;;;;;;;;;;;
2024/01/11 07:47:34;;;;;;;2.08;1.40;;;-3.40;73.10;;;;;;4990467;28;20943;-83
2024/01/11 07:50:35;;;;;;;6.38;1.77;;;-3.20;72.80;;;;;;4969826;28;20486;-82
2024/01/11 07:58:43;;;;;;;4.70;2.00;;;-3.40;71.50;;;;;;4920001;28;20101;-83
2024/01/11 08:09:31;;;;;;;6.65;2.75;;;-3.40;70.10;;;;;;5010420;28;20082;-81
2024/01/11 08:13:04;;;;;;;15.35;3.60;;;-3.60;70.30;;;;;;4987203;28;20053;-81
2024/01/11 08:15:41;;;;;;;4.63;1.63;;;-3.50;70.00;;;;;;4928591;29;20509;-79
2024/01/11 08:18:13;;;;;;;7.55;2.58;;;-3.60;68.50;;;;;;4976412;28;20426;-81
2024/01/11 08:21:26;;;;;;;;;;;;;;;;;;;;;
2024/01/11 08:24:55;;;;;;;;;;;;;;;;;;;;;
2024/01/11 08:28:16;;;;;;;;;;;;;;;;;;;;;
2024/01/11 08:31:09;;;;;;;2.97;0.90;;;-3.60;68.00;;;;;;5136933;28;20036;-79
2024/01/11 08:33:38;;;;;;;1.75;1.27;;;-3.50;66.90;;;;;;5099877;28;20040;-79
2024/01/11 08:39:52;;;;;;;;;;;;;;;;;;;;;
2024/01/11 08:43:14;;;;;;;;;;;;;;;;;;;;;
2024/01/11 08:49:43;;;;;;;;;;;;;;;;;;;;;
2024/01/11 08:53:00;;;;;;;5.18;1.05;;;-3.20;65.70;;;;;;4977312;28;20045;-86
2024/01/11 08:55:40;;;;;;;0.80;0.73;;;-3.30;65.50;;;;;;5078467;28;20099;-85
2024/01/11 08:58:19;;;;;;;6.28;1.48;;;-3.40;65.60;;;;;;5085175;28;20569;-85
2024/01/11 09:01:29;;;;;;;;;;;;;;;;;;;;;
2024/01/11 09:04:18;;;;;;;6.68;1.35;;;-3.60;65.20;;;;;;5079486;28;20051;-85
2024/01/11 09:06:59;;;;;;;2.33;1.27;;;-3.60;65.20;;;;;;5097544;28;20052;-86
2024/01/11 09:13:51;;;;;;;2.63;1.38;;;-3.70;65.60;;;;;;5024656;28;20060;-78
2024/01/11 09:17:02;;;;;;;2.88;0.82;;;-3.70;65.00;;;;;;5014101;28;20054;-78
2024/01/11 09:19:34;;;;;;;4.85;1.30;;;-3.60;65.60;;;;;;5093317;28;20052;-79
2024/01/11 09:22:47;;;;;;;;;;;;;;;;;;;;;
2024/01/11 09:25:39;;;;;;;2.20;1.67;;;-3.60;65.40;;;;;;5056863;28;20513;-80
2024/01/11 09:28:23;;;;;;;4.30;2.22;;;-3.50;64.50;;;;;;5108994;28;20048;-79
2024/01/11 09:31:19;;;;;;;2.17;0.85;;;-3.40;64.40;;;;;;5079024;28;20400;-79
2024/01/11 09:33:53;;;;;;;5.68;1.58;;;-3.40;63.80;;;;;;5092336;28;20076;-79
2024/01/11 09:36:55;;;;;;;3.22;1.10;;;-3.50;64.10;;;;;;5093167;28;20055;-79
2024/01/11 09:39:46;;;;;;;5.53;1.30;;;-3.50;63.50;;;;;;5088433;28;20490;-79
2024/01/11 09:43:09;;;;;;;1.83;1.05;;;-3.50;63.50;;;;;;5090138;28;20079;-78
2024/01/11 09:45:54;;;;;;;2.47;0.98;;;-3.50;63.70;;;;;;5076155;28;20105;-80
2024/01/11 09:48:30;;;;;;;6.05;0.95;;;-3.60;63.00;;;;;;5074565;28;20130;-80
2024/01/11 09:51:13;;;;;;;4.82;1.40;;;-3.50;63.20;;;;;;5092563;28;20058;-79
2024/01/11 09:54:01;;;;;;;3.42;1.10;;;-3.50;61.90;;;;;;5073869;28;20044;-78
2024/01/11 09:56:44;;;;;;;3.97;1.45;;;-3.60;61.90;;;;;;5074536;28;20391;-79
2024/01/11 09:59:31;;;;;;;2.92;0.95;;;-3.60;62.80;;;;;;5064091;28;20076;-86
2024/01/11 10:02:02;;;;;;;5.28;1.92;;;-3.60;63.30;;;;;;5065654;28;20409;-88
2024/01/11 10:05:12;;;;;;;4.90;1.27;;;-3.60;63.00;;;;;;5098515;28;20082;-87
2024/01/11 10:07:43;;;;;;;1.02;0.55;;;-3.60;62.40;;;;;;5052702;28;20052;-82
2024/01/11 10:10:16;;;;;;;2.50;1.20;;;-3.50;62.50;;;;;;5092269;28;20052;-80
2024/01/11 10:12:45;;;;;;;2.03;1.05;;;-3.60;62.70;;;;;;5070753;28;20105;-79
2024/01/11 10:15:56;;;;;;;3.42;1.33;;;-3.70;62.60;;;;;;5103269;27;20039;-80
2024/01/11 10:19:03;;;;;;;8.82;2.30;;;-3.70;63.50;;;;;;5102923;27;20419;-80
2024/01/11 10:21:54;;;;;;;2.28;1.80;;;-3.80;63.30;;;;;;5089646;27;20055;-80
2024/01/11 10:24:42;;;;;;;;;;;;;;;;;;;;;
2024/01/11 10:28:42;;;;;;;3.53;1.40;;;-4.00;66.70;;;;;;5090514;27;20482;-80
2024/01/11 10:36:20;;;;;;;;;;;;;;;;;;;;;
2024/01/11 10:39:20;;;;;;;3.83;1.50;;;-3.80;69.70;;;;;;5065156;27;20044;-86
2024/01/11 10:42:17;;;;;;;5.60;3.30;;;-3.90;68.60;;;;;;5132533;27;20491;-80
2024/01/11 10:45:07;;;;;;;3.28;1.75;;;-4.10;69.80;;;;;;5117890;27;20060;-85
2024/01/11 10:47:57;;;;;;;6.53;1.58;;;-4.20;70.60;;;;;;5060610;28;20039;-85
2024/01/11 10:50:27;;;;;;;8.73;1.67;;;-4.20;71.40;;;;;;5075755;28;20051;-85
2024/01/11 10:53:06;;;;;;;4.50;1.83;;;-4.20;71.50;;;;;;5095013;28;20184;-86
2024/01/11 10:55:58;;;;;;;4.65;1.52;;;-4.30;71.80;;;;;;5096116;28;20047;-85
2024/01/11 10:58:35;;;;;;;4.93;2.40;;;-4.20;72.60;;;;;;5104090;28;20051;-85
2024/01/11 11:01:21;;;;;;;6.55;1.88;;;-4.20;72.30;;;;;;5111915;28;20051;-85
2024/01/11 11:04:19;;;;;;;7.88;3.20;;;-4.30;72.00;;;;;;5093231;28;20150;-83
2024/01/11 11:07:09;;;;;;;10.98;2.17;;;-4.30;73.30;;;;;;5105509;27;20051;-80
2024/01/11 11:09:43;;;;;;;8.95;2.72;;;-4.30;72.90;;;;;;5116965;27;20122;-85
2024/01/11 11:12:13;;;;;;;9.02;2.15;;;-4.30;73.80;;;;;;5112405;27;20043;-85
2024/01/11 11:14:56;;;;;;;2.75;1.38;;;-4.30;73.30;;;;;;5110777;27;20138;-85
2024/01/11 11:17:49;;;;;;;5.18;2.15;;;-4.40;73.00;;;;;;5091876;28;20141;-86
2024/01/11 11:20:46;;;;;;;8.48;1.75;;;-4.30;73.40;;;;;;5008018;28;20046;-85
2024/01/11 11:23:22;;;;;;;2.65;1.95;;;-4.30;73.30;;;;;;5091763;28;20139;-85
2024/01/11 11:26:00;;;;;;;7.25;1.98;;;-4.40;73.70;;;;;;5106432;28;20073;-85
2024/01/11 11:28:34;;;;;;;3.03;1.55;;;-4.30;74.30;;;;;;5100338;28;20046;-84
2024/01/11 11:31:26;;;;;;;;;;;;;;;;;;;;;
2024/01/11 11:34:56;;;;;;;;;;;;;;;;;;;;;
2024/01/11 11:38:16;;;;;;;;;;;;;;;;;;;;;
2024/01/11 11:41:45;;;;;;;;;;;;;;;;;;;;;
2024/01/11 11:45:20;;;;;;;;;;;;;;;;;;;;;
2024/01/11 11:48:56;;;;;;;5.40;1.98;;;-4.30;74.40;;;;;;5016884;28;20047;-85
2024/01/11 11:51:36;;;;;;;11.70;2.42;;;-4.20;74.30;;;;;;5083397;28;20086;-81
2024/01/11 11:54:28;;;;;;;11.55;2.42;;;-4.20;74.00;;;;;;5092691;28;20040;-81
2024/01/11 11:56:59;;;;;;;7.57;2.78;;;-4.20;73.90;;;;;;5066370;28;20458;-79
2024/01/11 11:59:27;;;;;;;3.63;2.33;;;-4.20;73.10;;;;;;5109652;28;20055;-79
2024/01/11 12:02:01;;;;;;;10.88;3.30;;;-4.20;72.50;;;;;;5104106;28;20503;-80
2024/01/11 12:04:31;;;;;;;5.90;2.42;;;-4.00;72.60;;;;;;5083394;28;20067;-78
2024/01/11 12:07:26;;;;;;;6.05;1.85;;;-4.00;73.00;;;;;;5090619;28;20047;-81
2024/01/11 12:10:29;;;;;;;9.48;2.75;;;-3.90;72.60;;;;;;5063407;28;20523;-80
2024/01/11 12:13:17;;;;;;;14.63;2.88;;;-4.00;71.50;;;;;;5090489;28;20044;-80
2024/01/11 12:15:46;;;;;;;8.52;2.85;;;-4.00;70.90;;;;;;5131698;27;20058;-82
2024/01/11 12:18:16;;;;;;;9.30;2.30;;;-4.00;70.90;;;;;;5086998;28;20049;-83
2024/01/11 12:21:01;;;;;;;6.72;3.22;;;-4.00;71.10;;;;;;5089618;28;20044;-81
2024/01/11 12:23:41;;;;;;;6.03;2.30;;;-3.90;71.70;;;;;;5071724;28;21142;-80
2024/01/11 12:26:21;;;;;;;10.48;2.22;;;-3.90;72.00;;;;;;5063685;28;20054;-81
2024/01/11 12:32:41;;;;;;;7.45;1.70;;;-3.90;72.10;;;;;;5077054;28;20101;-87
2024/01/11 12:35:09;;;;;;;7.28;1.33;;;-3.90;70.60;;;;;;5115576;28;20044;-85
2024/01/11 12:37:37;;;;;;;8.63;1.38;;;-3.80;71.40;;;;;;5093098;28;20048;-86
2024/01/11 12:40:06;;;;;;;5.20;1.73;;;-3.90;70.80;;;;;;5103788;28;20044;-84
2024/01/11 12:42:36;;;;;;;3.20;1.65;;;-4.00;70.00;;;;;;5122062;27;20049;-83
2024/01/11 12:45:07;;;;;;;7.70;1.70;;;-4.00;70.50;;;;;;5099952;28;20044;-84
2024/01/11 12:47:38;;;;;;;5.03;1.55;;;-4.00;69.80;;;;;;5116028;27;20050;-81
2024/01/11 12:50:08;;;;;;;7.18;1.70;;;-4.20;68.60;;;;;;5108074;28;20075;-81
2024/01/11 12:52:36;;;;;;;4.15;1.20;;;-4.30;69.70;;;;;;5113564;28;20085;-81
2024/01/11 12:55:04;;;;;;;3.53;1.45;;;-4.50;68.90;;;;;;5079745;28;20058;-81
2024/01/11 12:57:33;;;;;;;6.53;2.28;;;-4.50;69.80;;;;;;5079872;28;20067;-81
2024/01/11 13:00:16;;;;;;;5.75;1.17;;;-4.50;69.40;;;;;;5058555;28;20051;-85
2024/01/11 13:02:46;;;;;;;1.90;1.65;;;-4.50;69.30;;;;;;5073846;28;20044;-85
2024/01/11 13:05:15;;;;;;;2.58;1.38;;;-4.40;68.40;;;;;;5091227;28;20052;-84
2024/01/11 13:07:44;;;;;;;2.42;1.35;;;-4.40;68.80;;;;;;5071212;28;20146;-86
2024/01/11 13:10:14;;;;;;;9.35;1.75;;;-4.40;69.60;;;;;;5094269;28;20053;-86
2024/01/11 13:12:47;;;;;;;2.60;1.58;;;-4.40;70.50;;;;;;5112785;28;20523;-86
2024/01/11 13:15:24;;;;;;;4.43;1.38;;;-4.50;71.40;;;;;;5093152;28;20048;-86
2024/01/11 13:17:53;;;;;;;4.30;1.42;;;-4.60;72.10;;;;;;5077034;28;20059;-88
2024/01/11 13:20:21;;;;;;;7.45;1.48;;;-4.60;72.40;;;;;;5093996;28;20624;-84
2024/01/11 13:22:51;;;;;;;5.53;1.40;;;-4.70;71.50;;;;;;5090798;28;20059;-87
2024/01/11 13:25:21;;;;;;;2.03;1.55;;;-4.60;71.20;;;;;;5088409;28;20047;-86
2024/01/11 13:27:54;;;;;;;5.35;1.63;;;-4.60;71.60;;;;;;5076545;27;20043;-86
2024/01/11 13:30:35;;;;;;;6.70;1.83;;;-4.70;70.50;;;;;;5107570;28;20047;-85
2024/01/11 13:33:19;;;;;;;2.88;1.50;;;-4.70;70.70;;;;;;5066662;28;20548;-85
2024/01/11 13:36:15;;;;;;;3.28;1.40;;;-4.70;69.80;;;;;;5108720;28;20044;-86
2024/01/11 13:38:50;;;;;;;9.18;1.80;;;-4.70;70.60;;;;;;5094856;28;20407;-86
2024/01/11 13:41:21;;;;;;;3.63;1.40;;;-4.60;70.80;;;;;;5094500;28;20063;-86
2024/01/11 13:43:49;;;;;;;6.32;1.98;;;-4.70;69.50;;;;;;5082174;28;20074;-87
2024/01/11 13:46:21;;;;;;;7.75;2.55;;;-4.70;70.10;;;;;;5075783;28;20054;-83
2024/01/11 13:48:49;;;;;;;6.40;1.95;;;-4.70;69.70;;;;;;5109798;28;20071;-82
2024/01/11 13:51:17;;;;;;;3.83;1.73;;;-4.70;68.70;;;;;;5105364;28;20444;-81
2024/01/11 13:53:46;;;;;;;4.13;1.58;;;-4.70;69.40;;;;;;5082202;28;20403;-82
2024/01/11 13:56:14;;;;;;;7.13;2.00;;;-4.60;69.30;;;;;;5108414;28;20074;-83
2024/01/11 13:58:41;;;;;;;2.80;1.20;;;-4.60;69.80;;;;;;5089326;28;20047;-80
2024/01/11 14:01:09;;;;;;;5.65;2.00;;;-4.60;70.00;;;;;;5106528;28;20416;-82
2024/01/11 14:03:38;;;;;;;10.82;2.97;;;-4.60;70.30;;;;;;5092751;28;20138;-81
2024/01/11 14:06:06;;;;;;;4.10;1.20;;;-4.60;70.10;;;;;;5111747;28;20047;-82
2024/01/11 14:08:35;;;;;;;3.22;1.20;;;-4.60;69.90;;;;;;5091635;28;20527;-80
2024/01/11 14:11:02;;;;;;;4.22;1.50;;;-4.60;70.30;;;;;;5090171;28;20054;-80
2024/01/11 14:13:29;;;;;;;6.43;1.38;;;-4.60;71.50;;;;;;5111981;28;20105;-81
2024/01/11 14:15:57;;;;;;;4.25;1.92;;;-4.70;72.50;;;;;;5093875;28;20154;-81
2024/01/11 14:18:25;;;;;;;3.17;1.30;;;-4.60;72.70;;;;;;5111911;28;20056;-79
2024/01/11 14:20:55;;;;;;;4.82;1.50;;;-4.60;72.80;;;;;;5069367;28;20040;-82
2024/01/11 14:23:22;;;;;;;13.13;2.90;;;-4.70;72.90;;;;;;5074952;28;20457;-81
2024/01/11 14:25:55;;;;;;;6.13;2.28;;;-4.60;73.20;;;;;;5104472;28;20271;-80
2024/01/11 14:28:22;;;;;;;3.35;1.67;;;-4.60;72.70;;;;;;5090840;28;20047;-82
2024/01/11 14:30:50;;;;;;;6.95;2.55;;;-4.60;72.50;;;;;;5110434;28;20052;-79
2024/01/11 14:33:21;;;;;;;5.30;2.10;;;-4.60;72.30;;;;;;5097894;28;20044;-84
2024/01/11 14:35:48;;;;;;;3.67;1.65;;;-4.50;71.90;;;;;;5108512;28;20051;-84
2024/01/11 14:38:17;;;;;;;7.97;2.97;;;-4.60;71.80;;;;;;5096135;28;20073;-80
2024/01/11 14:40:45;;;;;;;4.95;2.22;;;-4.60;72.10;;;;;;5096329;28;20047;-80
2024/01/11 14:43:15;;;;;;;6.93;2.90;;;-4.60;72.40;;;;;;5089090;28;20140;-80
2024/01/11 14:45:43;;;;;;;5.20;3.03;;;-4.50;72.60;;;;;;5061676;28;20067;-80
2024/01/11 14:48:12;;;;;;;10.48;2.80;;;-4.50;72.90;;;;;;5105474;28;20097;-81
2024/01/11 14:50:39;;;;;;;8.75;2.45;;;-4.60;73.30;;;;;;5088943;28;20173;-81
2024/01/11 14:53:07;;;;;;;5.53;3.65;;;-4.60;73.50;;;;;;5107518;28;20723;-79
2024/01/11 14:55:37;;;;;;;6.35;3.80;;;-4.60;73.20;;;;;;5105958;28;20038;-81
2024/01/11 14:58:05;;;;;;;6.32;3.40;;;-4.60;72.90;;;;;;5104365;28;20553;-81
2024/01/11 15:00:33;;;;;;;5.25;2.95;;;-4.60;72.70;;;;;;5109276;28;20048;-81
2024/01/11 15:03:02;;;;;;;14.15;2.72;;;-4.50;72.70;;;;;;5111840;28;20147;-81
2024/01/11 15:05:29;;;;;;;8.40;2.97;;;-4.60;72.10;;;;;;5104144;28;20103;-81
2024/01/11 15:07:57;;;;;;;4.15;2.40;;;-4.60;72.90;;;;;;5105950;28;20047;-82
2024/01/11 15:10:26;;;;;;;6.93;3.30;;;-4.50;72.30;;;;;;5088531;28;20051;-81
2024/01/11 15:12:54;;;;;;;7.47;2.40;;;-4.50;72.60;;;;;;5095801;28;20103;-81
2024/01/11 15:15:26;;;;;;;5.38;2.13;;;-4.50;72.50;;;;;;5090294;28;20130;-81
2024/01/11 15:17:58;;;;;;;5.43;2.47;;;-4.60;72.40;;;;;;5093653;28;20051;-86
2024/01/11 15:20:26;;;;;;;4.10;2.15;;;-4.50;71.80;;;;;;5105525;28;20051;-85
2024/01/11 15:22:53;;;;;;;4.47;2.17;;;-4.60;71.00;;;;;;5094672;28;20087;-86
2024/01/11 15:25:20;;;;;;;7.35;2.78;;;-4.60;71.10;;;;;;5099446;28;20499;-86
2024/01/11 15:27:49;;;;;;;6.95;2.47;;;-4.60;71.00;;;;;;5089104;28;20074;-85
2024/01/11 15:30:21;;;;;;;5.45;2.13;;;-4.50;70.60;;;;;;5107580;28;20048;-84
2024/01/11 15:32:56;;;;;;;4.93;1.52;;;-4.50;70.20;;;;;;5084419;28;20527;-85
2024/01/11 15:35:26;;;;;;;6.43;1.70;;;-4.50;69.80;;;;;;5085326;28;20133;-86
2024/01/11 15:37:54;;;;;;;2.47;1.30;;;-4.50;68.10;;;;;;5105977;28;20199;-85
2024/01/11 15:40:25;;;;;;;7.68;1.30;;;-4.50;67.80;;;;;;5088402;28;20446;-81
2024/01/11 15:42:55;;;;;;;4.07;0.98;;;-4.60;67.30;;;;;;5063905;28;20052;-82
2024/01/11 15:45:23;;;;;;;5.25;1.98;;;-4.50;66.70;;;;;;5013316;28;20165;-81
2024/01/11 15:48:02;;;;;;;3.22;1.80;;;-4.60;67.10;;;;;;5012642;28;20054;-80
2024/01/11 15:50:33;;;;;;;4.82;1.60;;;-4.60;66.70;;;;;;4996666;28;20419;-82
2024/01/11 15:53:02;;;;;;;2.60;1.10;;;-4.60;67.30;;;;;;5008380;28;20053;-80
2024/01/11 15:55:30;;;;;;;4.28;1.08;;;-4.60;68.00;;;;;;4999430;28;20142;-82
2024/01/11 15:58:05;;;;;;;7.85;2.28;;;-4.70;68.60;;;;;;5009508;28;20046;-81
2024/01/11 16:00:41;;;;;;;4.95;1.80;;;-4.70;69.30;;;;;;5023906;28;20572;-82
2024/01/11 16:03:12;;;;;;;5.82;2.20;;;-4.90;69.60;;;;;;5007045;28;20573;-86
2024/01/11 16:05:40;;;;;;;7.18;2.97;;;-4.90;70.00;;;;;;5013754;28;20927;-87
2024/01/11 16:08:14;;;;;;;5.25;2.78;;;-5.10;69.50;;;;;;5004672;28;20057;-81
2024/01/11 16:10:42;;;;;;;6.78;2.70;;;-5.10;69.80;;;;;;5007015;28;20054;-82
2024/01/11 16:13:09;;;;;;;7.10;3.42;;;-5.30;69.60;;;;;;5006730;28;20529;-82
2024/01/11 16:15:41;;;;;;;9.43;2.88;;;-5.30;70.40;;;;;;4997668;28;20136;-82
2024/01/11 16:18:08;;;;;;;5.50;2.65;;;-5.20;70.60;;;;;;5012412;28;20041;-81
2024/01/11 16:20:36;;;;;;;4.38;2.25;;;-5.20;70.70;;;;;;5010904;28;20058;-82
2024/01/11 16:23:05;;;;;;;13.65;2.50;;;-5.20;70.20;;;;;;5007747;28;20140;-83
2024/01/11 16:25:32;;;;;;;7.18;2.63;;;-5.10;70.10;;;;;;5022997;28;20050;-81
2024/01/11 16:28:00;;;;;;;5.10;2.40;;;-5.10;69.70;;;;;;5008337;28;20058;-79
2024/01/11 16:30:30;;;;;;;4.45;2.15;;;-5.00;69.30;;;;;;5010653;28;20052;-84
2024/01/11 16:33:00;;;;;;;12.73;2.05;;;-5.00;69.20;;;;;;5007935;28;20053;-82
2024/01/11 16:35:46;;;;;;;4.93;1.63;;;-5.00;69.60;;;;;;5012191;28;20057;-86
2024/01/11 16:38:29;;;;;;;7.97;1.83;;;-5.00;68.80;;;;;;5021471;28;20042;-88
2024/01/11 16:41:21;;;;;;;3.20;1.52;;;-5.10;68.50;;;;;;5021875;28;20124;-88
2024/01/11 16:44:11;;;;;;;4.15;2.70;;;-5.00;68.20;;;;;;5025544;28;20041;-86
2024/01/11 16:46:44;;;;;;;11.10;2.80;;;-5.00;68.40;;;;;;5017093;28;20069;-87
2024/01/11 17:01:46;;;;;;;3.90;2.05;;;-5.10;68.30;;;;;;4538816;31;20524;-86
2024/01/11 17:04:20;;;;;;;6.57;2.28;;;-5.10;67.60;;;;;;4433939;32;20068;-84
2024/01/11 17:07:16;;;;;;;7.65;1.80;;;-5.10;67.10;;;;;;4414470;31;20858;-85
2024/01/11 17:09:51;;;;;;;8.52;1.98;;;-5.10;67.20;;;;;;4423476;32;20061;-87
2024/01/11 17:12:44;;;;;;;5.10;2.63;;;-5.10;67.90;;;;;;4413636;32;20061;-83
2024/01/11 17:18:30;;;;;;;8.70;1.90;;;-5.10;66.70;;;;;;4433895;31;20450;-85
2024/01/11 17:21:02;;;;;;;5.82;2.47;;;-5.20;66.10;;;;;;4524257;31;20068;-86
2024/01/11 17:23:30;;;;;;;8.23;2.13;;;-5.20;66.20;;;;;;4606170;30;20158;-86
2024/01/11 17:26:03;;;;;;;8.98;2.42;;;-5.40;65.50;;;;;;4659765;30;20063;-88
2024/01/11 17:28:31;;;;;;;5.07;2.03;;;-5.50;65.90;;;;;;4621897;30;20509;-88
2024/01/11 17:30:58;;;;;;;12.48;3.00;;;-5.50;66.20;;;;;;4641193;30;20361;-86
2024/01/11 17:33:28;;;;;;;5.20;1.65;;;-5.50;66.20;;;;;;4660199;30;20058;-87
2024/01/11 17:36:00;;;;;;;8.05;1.92;;;-5.60;66.60;;;;;;4696457;30;20415;-85
2024/01/11 17:38:27;;;;;;;7.40;1.77;;;-5.60;66.80;;;;;;4718237;30;20474;-87
2024/01/11 17:40:56;;;;;;;5.72;2.40;;;-5.70;66.60;;;;;;4712791;29;20560;-89
2024/01/11 17:43:28;;;;;;;3.92;1.85;;;-5.70;66.80;;;;;;4652376;30;20860;-91
2024/01/11 17:46:01;;;;;;;6.20;1.70;;;-5.80;66.80;;;;;;4708909;29;20480;-90
2024/01/11 17:48:31;;;;;;;6.80;2.45;;;-5.90;67.00;;;;;;4750236;29;20126;-89
2024/01/11 17:51:13;;;;;;;9.52;3.15;;;-5.80;67.60;;;;;;4671473;30;20108;-92
2024/01/11 17:53:44;;;;;;;4.22;2.20;;;-5.80;68.30;;;;;;4659205;30;20179;-93
2024/01/11 17:56:14;;;;;;;6.18;2.90;;;-5.90;68.80;;;;;;4668017;30;20423;-91
2024/01/11 17:58:45;;;;;;;7.60;2.72;;;-6.00;69.30;;;;;;4632189;30;20046;-89
2024/01/11 18:01:21;;;;;;;18.38;4.13;;;-6.10;69.50;;;;;;4658428;30;20093;-89
2024/01/11 18:03:54;;;;;;;9.15;3.25;;;-6.20;70.00;;;;;;4631061;30;20432;-88
2024/01/11 18:06:24;;;;;;;9.57;2.83;;;-6.20;69.80;;;;;;4638307;30;20109;-85
2024/01/11 18:08:53;;;;;;;5.72;2.45;;;-6.40;69.70;;;;;;4661722;30;20066;-83
2024/01/11 18:11:22;;;;;;;7.78;2.72;;;-6.40;69.70;;;;;;4679379;30;20071;-87
2024/01/11 18:13:50;;;;;;;7.75;1.70;;;-6.40;70.20;;;;;;4678399;30;20091;-85
2024/01/11 18:21:49;;;;;;;6.80;2.28;;;-6.30;69.30;;;;;;4573349;31;20182;-87
2024/01/11 18:24:17;;;;;;;7.63;2.22;;;-6.30;69.10;;;;;;4612986;30;20066;-86
2024/01/11 18:26:58;;;;;;;8.85;2.05;;;-6.40;69.60;;;;;;4637563;30;20066;-88
2024/01/11 18:40:18;;;;;;;8.85;2.03;;;-6.20;69.40;;;;;;4721397;29;20333;-87
2024/01/11 18:48:26;;;;;;;4.90;1.90;;;-6.20;68.70;;;;;;4701664;30;20064;-83
2024/01/11 19:04:03;;;;;;;4.53;2.53;;;-6.40;68.10;;;;;;5141702;27;20408;-82
2024/01/11 19:06:35;;;;;;;6.97;1.70;;;-6.40;67.60;;;;;;5113088;27;20056;-84
2024/01/11 19:09:08;;;;;;;5.93;1.52;;;-6.50;67.50;;;;;;5112734;28;20145;-85
2024/01/11 19:11:37;;;;;;;9.82;1.95;;;-6.50;67.10;;;;;;5110608;28;20424;-85
2024/01/11 19:14:05;;;;;;;8.35;2.67;;;-6.60;67.10;;;;;;5109919;28;20051;-81
2024/01/11 19:16:33;;;;;;;6.35;1.30;;;-6.60;67.30;;;;;;5115154;28;20469;-83
2024/01/11 19:19:02;;;;;;;4.13;1.85;;;-6.60;67.50;;;;;;5123124;27;20050;-87
2024/01/11 19:21:33;;;;;;;6.03;1.98;;;-6.70;67.50;;;;;;5110063;28;20039;-86
2024/01/11 19:24:07;;;;;;;2.03;1.00;;;-6.70;67.60;;;;;;5120505;27;20052;-85
2024/01/11 19:27:00;;;;;;;7.93;1.70;;;-6.70;67.60;;;;;;5124246;27;20075;-86
2024/01/11 19:29:30;;;;;;;4.60;1.10;;;-6.80;67.10;;;;;;5124046;28;20560;-85